Airbus A330 termina com pneus danificados no pouso; piloto teria confundido as luzes

Um Airbus A330 teve alguns de seus pneus seriamente danificados em um incidente de pouso, após um possível erro do piloto que comandava a aeronave.

Avião Airbus A330-300 Turkish
Airbus A330-300 da Turkish Airlines

O avião envolvido foi o Airbus A330-300 da Turkish Airlines registrado com a matrícula TC-LOL. Ele estava executando o voo e número TK-627 no dia 30 de dezembro de 2019, tendo decolado de Istambul, na Turquia, para Port Harcourt, na Nigéria.

A aeronave sofreu o incidente ao pousar em Port Harcourt por volta das 03:30 no horário local (02:30 UTC). Não há informações oficiais sobre a quantia exata de pneus danificados ou as posições deles.

FlightRadar24 Turkish A330 Pneus Danificados Pouso
O voo do incidente do TC-LOL – Imagem: FlightRadar24

Segundo o The Aviation Herald, fontes afirmam que o comandante pousou a aeronave fora do limite lateral da pista por ter se confundido em relação às luzes de balizamento. O piloto teria considerado que as laterais eram as luzes da linha central.

As informações meteorológicas do aeródromo (METAR) no momento do pouso indicavam presença de névoa seca, porém com visibilidade em trono de 5 quilômetros:

  • DNPO 310200Z 00000KT 5000 HZ NSC 24/23 Q1009 NOSIG=
  • DNPO 310300Z 00000KT 5000 HZ NSC 21/21 Q1009 NOSIG=

A agência de aviação da Nigéria, NCAA, confirmou a ocorrência e informou que ela foi classificada como um incidente grave. Seu Conselho irá investigar.

A330-300 Turkish Pneus Danificados Pouso

A330-300 Turkish Pneus Danificados Pouso

A330-300 Turkish Pneus Danificados Pouso

Segundo dados dos sites de monitoramento de radar, o Airbus A330-300 da ocorrência permanece no solo em Port Harcourt até a publicação desta matéria.

No mês de novembro passado, um Airbus A320neo passou por um incidente semelhante quando tocou com as rodas na terra ao lado da pista, porém neste caso o piloto arremeteu após o toque. A ocorrência foi filmada por um passageiro, veja na matéria abaixo ou clicando aqui.

Outro fato semelhante aconteceu em Guarulhos, quando um A340 da TAP pousou na taxiway, porém sem qualquer dano à aeronave. Confira a história aqui: “O Airbus A340 da TAP e o pouso na pista de táxi em São Paulo“.

Murilo Bassetohttp://www.aeroin.net
Formado em Engenharia Mecânica e Pós-Graduando em Engenharia de Manutenção Aeronáutica, possui mais de 6 anos de experiência na área controle técnico de manutenção aeronáutica.

Veja outras histórias